createdAt,value
2018-11-02T00:01:34.816Z,20.83
2018-11-02T00:05:37.947Z,19.13
2018-11-02T00:09:40.810Z,21.70
2018-11-02T00:13:43.675Z,23.60
2018-11-02T00:17:46.527Z,20.90
2018-11-02T00:21:49.427Z,21.93
2018-11-02T00:25:52.279Z,22.80
2018-11-02T00:29:55.139Z,23.43
2018-11-02T00:33:57.998Z,22.10
2018-11-02T00:38:01.070Z,27.00
2018-11-02T00:42:04.192Z,24.53
2018-11-02T00:46:07.271Z,24.50
2018-11-02T00:50:11.597Z,26.80
2018-11-02T00:54:14.490Z,23.80
2018-11-02T00:58:17.346Z,26.43
2018-11-02T01:02:20.213Z,26.10
2018-11-02T01:06:23.059Z,25.50
2018-11-02T01:10:26.175Z,26.50
2018-11-02T01:14:29.029Z,23.53
2018-11-02T01:18:31.893Z,26.07
2018-11-02T01:22:34.759Z,26.47
2018-11-02T01:26:37.634Z,28.57
2018-11-02T01:30:40.495Z,26.67
2018-11-02T01:34:43.563Z,24.67
2018-11-02T01:38:46.411Z,25.20
2018-11-02T01:42:49.485Z,24.73
2018-11-02T01:46:52.551Z,27.43
2018-11-02T01:50:56.050Z,25.17
2018-11-02T01:54:59.478Z,24.07
2018-11-02T01:59:02.552Z,25.37
2018-11-02T02:03:05.458Z,25.30
2018-11-02T02:07:08.571Z,27.47
2018-11-02T02:11:11.434Z,25.97
2018-11-02T02:15:14.297Z,25.20
2018-11-02T02:19:17.230Z,25.17
2018-11-02T02:23:20.307Z,26.10
2018-11-02T02:27:23.371Z,28.40
2018-11-02T02:31:26.340Z,26.07
2018-11-02T02:35:29.191Z,27.63
2018-11-02T02:39:32.047Z,28.10
2018-11-02T02:43:34.916Z,26.27
2018-11-02T02:47:38.112Z,27.03
2018-11-02T02:51:41.171Z,26.37
2018-11-02T02:55:44.880Z,26.20
2018-11-02T02:59:47.736Z,26.77
2018-11-02T03:03:50.607Z,25.70
2018-11-02T03:07:53.464Z,26.07
2018-11-02T03:11:56.427Z,28.43
2018-11-02T03:15:59.271Z,27.50
2018-11-02T03:20:02.139Z,27.17
2018-11-02T03:24:05.178Z,28.60
2018-11-02T03:28:08.247Z,14.50
2018-11-02T03:32:11.267Z,13.63
2018-11-02T03:36:14.135Z,15.30
2018-11-02T03:40:17.191Z,6.30
2018-11-02T03:44:20.040Z,4.10
2018-11-02T03:48:22.890Z,4.70
2018-11-02T03:52:25.842Z,4.47
2018-11-02T03:56:28.725Z,2.97
2018-11-02T04:00:31.571Z,6.10
2018-11-02T04:04:34.416Z,6.77
2018-11-02T04:08:37.279Z,12.40
2018-11-02T04:12:41.123Z,4.70
2018-11-02T04:16:44.184Z,7.00
2018-11-02T04:20:47.247Z,7.97
2018-11-02T04:24:50.103Z,4.00
2018-11-02T04:28:52.950Z,5.63
2018-11-02T04:32:56.018Z,7.97
2018-11-02T04:36:59.115Z,8.40
2018-11-02T04:41:01.971Z,8.00
2018-11-02T04:45:05.124Z,6.97
2018-11-02T04:49:08.591Z,6.80
2018-11-02T04:53:11.434Z,6.13
2018-11-02T04:57:14.518Z,3.40
2018-11-02T05:01:17.376Z,9.53
2018-11-02T05:05:20.218Z,7.50
2018-11-02T05:09:23.283Z,5.50
2018-11-02T05:13:26.176Z,7.03
2018-11-02T05:17:29.018Z,4.30
2018-11-02T05:21:32.084Z,9.97
2018-11-02T05:25:34.920Z,6.40
2018-11-02T05:29:37.982Z,4.77
2018-11-02T05:33:40.830Z,7.57
2018-11-02T05:37:43.688Z,6.33
2018-11-02T05:41:46.560Z,5.40
2018-11-02T05:45:49.387Z,4.90
2018-11-02T05:49:52.242Z,5.67
2018-11-02T05:53:55.306Z,9.17
2018-11-02T05:57:58.208Z,3.87
2018-11-02T06:02:01.046Z,4.47
2018-11-02T06:06:04.420Z,6.90
2018-11-02T06:10:07.715Z,9.87
2018-11-02T06:14:10.575Z,3.40
2018-11-02T06:18:13.554Z,6.07
2018-11-02T06:22:16.598Z,5.13
2018-11-02T06:26:19.456Z,6.30
2018-11-02T06:30:22.535Z,6.33
2018-11-02T06:34:25.644Z,6.60
2018-11-02T06:38:28.534Z,6.80
2018-11-02T06:42:31.771Z,2.17
2018-11-02T06:46:34.654Z,2.67
2018-11-02T06:50:37.637Z,3.87
2018-11-02T06:54:40.464Z,3.33
2018-11-02T06:58:43.361Z,6.17
2018-11-02T07:02:46.315Z,4.67
2018-11-02T07:06:49.170Z,4.10
2018-11-02T07:10:52.030Z,5.53
2018-11-02T07:14:55.096Z,8.70
2018-11-02T07:18:57.939Z,8.57
2018-11-02T07:23:00.898Z,6.70
2018-11-02T07:27:03.742Z,4.13
2018-11-02T07:31:06.598Z,4.40
2018-11-02T07:35:10.302Z,3.00
2018-11-02T07:39:13.190Z,5.70
2018-11-02T07:43:16.046Z,8.00
2018-11-02T07:47:19.035Z,2.50
2018-11-02T07:51:22.055Z,4.63
2018-11-02T07:55:24.971Z,5.70
2018-11-02T07:59:27.826Z,4.70
2018-11-02T08:03:30.900Z,8.40
2018-11-02T08:07:33.942Z,6.40
2018-11-02T08:11:36.834Z,3.87
2018-11-02T08:15:39.888Z,5.10
2018-11-02T08:19:42.743Z,3.47
2018-11-02T08:23:45.598Z,6.13
2018-11-02T08:27:48.556Z,4.83
2018-11-02T08:31:51.421Z,3.03
2018-11-02T08:35:54.481Z,2.90
2018-11-02T08:39:57.634Z,4.87
2018-11-02T08:44:00.699Z,8.40
2018-11-02T08:48:03.547Z,3.13
2018-11-02T08:52:06.858Z,1.87
2018-11-02T08:56:09.908Z,3.30
2018-11-02T09:00:13.352Z,5.20
2018-11-02T09:04:16.231Z,2.57
2018-11-02T09:08:19.094Z,3.60
2018-11-02T09:12:22.196Z,2.43
2018-11-02T09:16:25.083Z,4.37
2018-11-02T09:20:28.144Z,4.60
2018-11-02T09:24:31.265Z,4.50
2018-11-02T09:28:34.131Z,5.40
2018-11-02T09:32:37.227Z,5.30
2018-11-02T09:36:40.075Z,4.70
2018-11-02T09:40:43.032Z,2.27
2018-11-02T09:44:46.088Z,3.07
2018-11-02T09:48:49.175Z,2.67
2018-11-02T09:52:52.036Z,3.07
2018-11-02T09:56:54.898Z,6.90
2018-11-02T10:00:57.991Z,3.30
2018-11-02T10:05:00.859Z,5.67
2018-11-02T10:09:05.629Z,2.13
2018-11-02T10:13:08.515Z,5.33
2018-11-02T10:17:11.570Z,2.50
2018-11-02T10:21:14.430Z,4.17
2018-11-02T10:25:17.291Z,6.30
2018-11-02T10:29:20.154Z,3.33
2018-11-02T10:33:23.230Z,3.37
2018-11-02T10:37:26.083Z,1.13
2018-11-02T10:41:31.232Z,3.07
2018-11-02T10:45:36.275Z,1.20
2018-11-02T10:49:39.131Z,2.17
2018-11-02T10:53:42.211Z,5.90
2018-11-02T10:57:45.346Z,3.53
2018-11-02T11:01:50.062Z,3.47
2018-11-02T11:05:53.088Z,7.57
2018-11-02T11:09:55.943Z,2.90
2018-11-02T11:13:59.033Z,3.53
2018-11-02T11:18:01.896Z,2.90
2018-11-02T11:22:04.787Z,1.90
2018-11-02T11:26:07.642Z,4.27
2018-11-02T11:30:13.524Z,3.63
2018-11-02T11:38:25.903Z,1.80
2018-11-02T11:42:28.971Z,3.63
2018-11-02T11:46:31.823Z,1.80
2018-11-02T11:50:34.678Z,2.10
2018-11-02T11:54:37.820Z,3.20
2018-11-02T11:58:40.607Z,3.40
2018-11-02T12:02:44.383Z,2.10
2018-11-02T12:06:47.228Z,0.97
2018-11-02T12:10:50.283Z,1.43
2018-11-02T12:14:53.150Z,1.57
2018-11-02T12:18:56.211Z,4.20
2018-11-02T12:22:59.774Z,3.03
2018-11-02T12:27:02.683Z,4.67
2018-11-02T12:31:05.594Z,2.77
2018-11-02T12:35:09.918Z,3.03
2018-11-02T12:39:12.775Z,4.47
2018-11-02T12:43:15.659Z,1.97
2018-11-02T12:47:18.494Z,2.60
2018-11-02T12:51:21.555Z,1.30
2018-11-02T12:55:24.735Z,1.60
2018-11-02T12:59:27.579Z,2.23
2018-11-02T13:03:30.667Z,1.67
2018-11-02T13:07:33.515Z,1.80
2018-11-02T13:11:36.392Z,1.43
2018-11-02T13:15:39.498Z,3.17
2018-11-02T13:19:42.322Z,2.07
2018-11-02T13:23:45.167Z,2.40
2018-11-02T13:27:48.707Z,3.03
2018-11-02T13:31:51.852Z,1.27
2018-11-02T13:35:54.631Z,2.60
2018-11-02T13:39:57.704Z,5.43
2018-11-02T13:44:00.759Z,4.03
2018-11-02T13:48:03.618Z,2.40
2018-11-02T13:52:07.479Z,1.30
2018-11-02T13:56:10.319Z,3.40
2018-11-02T14:00:15.782Z,1.70
2018-11-02T14:04:18.686Z,1.87
2018-11-02T14:08:21.550Z,2.53
2018-11-02T14:12:24.440Z,4.80
2018-11-02T14:16:27.306Z,3.93
2018-11-02T14:20:30.151Z,2.20
2018-11-02T14:24:33.818Z,1.47
2018-11-02T14:28:37.090Z,3.70
2018-11-02T14:32:40.187Z,4.40
2018-11-02T14:36:43.359Z,4.10
2018-11-02T14:40:46.236Z,2.83
2018-11-02T14:44:49.278Z,2.80
2018-11-02T14:48:52.131Z,5.53
2018-11-02T14:52:54.983Z,2.90
2018-11-02T14:56:57.893Z,3.57
2018-11-02T15:01:00.730Z,3.10
2018-11-02T15:05:03.834Z,3.83
2018-11-02T15:09:08.342Z,2.30
2018-11-02T15:13:11.211Z,4.10
2018-11-02T15:17:14.869Z,8.70
2018-11-02T15:21:17.883Z,3.80
2018-11-02T15:25:20.942Z,1.33
2018-11-02T15:29:23.874Z,2.10
2018-11-02T15:33:26.723Z,1.27
2018-11-02T15:37:29.584Z,5.27
2018-11-02T15:41:32.434Z,4.63
2018-11-02T15:45:35.497Z,3.03
2018-11-02T15:49:38.354Z,1.93
2018-11-02T15:53:41.211Z,8.70
2018-11-02T15:57:44.077Z,4.03
2018-11-02T16:01:47.131Z,5.17
2018-11-02T16:05:50.039Z,4.40
2018-11-02T16:09:53.095Z,3.43
2018-11-02T16:13:55.970Z,29.30
2018-11-02T16:17:58.835Z,2.20
2018-11-02T16:22:01.743Z,6.30
2018-11-02T16:26:04.606Z,5.50
2018-11-02T16:30:08.191Z,8.97
2018-11-02T16:34:11.027Z,4.00
2018-11-02T16:38:14.007Z,4.87
2018-11-02T16:42:17.095Z,2.80
2018-11-02T16:46:19.999Z,5.13
2018-11-02T16:50:23.132Z,2.50
2018-11-02T16:54:25.946Z,2.70
2018-11-02T16:58:28.768Z,3.53
2018-11-02T17:02:31.662Z,4.67
2018-11-02T17:06:34.478Z,2.63
2018-11-02T17:10:37.535Z,6.20
2018-11-02T17:14:40.422Z,5.53
2018-11-02T17:18:43.481Z,6.23
2018-11-02T17:22:46.927Z,3.93
2018-11-02T17:26:49.987Z,3.47
2018-11-02T17:30:52.895Z,2.23
2018-11-02T17:34:55.739Z,2.80
2018-11-02T17:38:58.602Z,4.63
2018-11-02T17:43:01.682Z,1.60
2018-11-02T17:47:04.711Z,1.87
2018-11-02T17:51:07.647Z,4.00
2018-11-02T17:55:11.593Z,4.27
2018-11-02T17:59:14.513Z,3.40
2018-11-02T18:03:17.362Z,4.97
2018-11-02T18:07:20.235Z,2.20
2018-11-02T18:11:23.103Z,3.60
2018-11-02T18:15:25.991Z,4.40
2018-11-02T18:19:29.056Z,4.10
2018-11-02T18:23:31.963Z,2.57
2018-11-02T18:27:34.826Z,3.63
2018-11-02T18:31:37.670Z,3.50
2018-11-02T18:35:40.541Z,2.97
2018-11-02T18:39:43.669Z,2.13
2018-11-02T18:43:46.478Z,3.23
2018-11-02T18:47:50.691Z,2.63
2018-11-02T18:51:53.775Z,2.47
2018-11-02T18:55:56.852Z,4.77
2018-11-02T18:59:59.775Z,4.13
2018-11-02T19:04:02.671Z,5.07
2018-11-02T19:08:05.759Z,3.27
2018-11-02T19:12:08.666Z,4.23
2018-11-02T19:16:11.530Z,7.30
2018-11-02T19:20:14.734Z,4.10
2018-11-02T19:24:17.554Z,7.03
2018-11-02T19:28:20.398Z,5.87
2018-11-02T19:32:23.266Z,4.60
2018-11-02T19:36:26.337Z,2.43
2018-11-02T19:40:29.198Z,2.20
2018-11-02T19:44:32.116Z,4.43
2018-11-02T19:48:35.151Z,5.13
2018-11-02T19:52:37.995Z,5.07
2018-11-02T19:56:40.847Z,3.33
2018-11-02T20:00:43.692Z,3.27
2018-11-02T20:04:46.546Z,3.43
2018-11-02T20:08:49.619Z,3.17
2018-11-02T20:12:52.474Z,3.60
2018-11-02T20:16:55.548Z,3.97
2018-11-02T20:20:58.670Z,3.50
2018-11-02T20:25:01.566Z,4.63
2018-11-02T20:29:04.806Z,3.60
2018-11-02T20:33:07.671Z,2.50
2018-11-02T20:37:10.530Z,4.07
2018-11-02T20:41:13.575Z,3.90
2018-11-02T20:45:16.870Z,3.40
2018-11-02T20:49:19.723Z,5.30
2018-11-02T20:53:22.603Z,4.10
2018-11-02T20:57:25.723Z,3.73
2018-11-02T21:01:28.587Z,3.27
2018-11-02T21:05:31.453Z,3.10
2018-11-02T21:09:34.664Z,5.73
2018-11-02T21:13:37.350Z,4.10
2018-11-02T21:17:40.271Z,4.13
2018-11-02T21:21:43.341Z,4.70
2018-11-02T21:25:46.194Z,3.20
2018-11-02T21:29:49.039Z,6.23
2018-11-02T21:33:51.962Z,7.30
2018-11-02T21:37:54.849Z,3.80
2018-11-02T21:41:57.887Z,3.93
2018-11-02T21:46:00.727Z,3.80
2018-11-02T21:50:03.892Z,4.50
2018-11-02T21:54:06.972Z,5.70
2018-11-02T21:58:09.842Z,4.60
2018-11-02T22:02:12.887Z,5.77
2018-11-02T22:06:15.743Z,5.80
2018-11-02T22:10:19.223Z,5.63
2018-11-02T22:14:22.083Z,4.83
2018-11-02T22:18:25.010Z,3.73
2018-11-02T22:22:27.843Z,3.73
2018-11-02T22:26:30.702Z,4.40
2018-11-02T22:30:33.766Z,5.73
2018-11-02T22:34:36.608Z,6.23
2018-11-02T22:38:39.455Z,9.10
2018-11-02T22:42:42.815Z,5.27
2018-11-02T22:46:45.667Z,6.13
2018-11-02T22:50:48.715Z,7.33
2018-11-02T22:54:51.569Z,6.17
2018-11-02T22:58:54.410Z,6.23
2018-11-02T23:02:57.267Z,6.80
2018-11-02T23:07:00.130Z,6.03
2018-11-02T23:11:03.003Z,6.57
2018-11-02T23:15:06.824Z,6.07
2018-11-02T23:19:09.740Z,7.53
2018-11-02T23:23:12.737Z,6.13
2018-11-02T23:27:15.586Z,5.73
2018-11-02T23:31:18.430Z,6.57
2018-11-02T23:35:21.488Z,8.13
2018-11-02T23:39:24.535Z,7.50
2018-11-02T23:43:27.384Z,6.33
2018-11-02T23:47:30.223Z,6.50
2018-11-02T23:51:33.283Z,7.03
2018-11-02T23:55:36.327Z,6.30
2018-11-02T23:59:39.186Z,6.93
